createdAt,value
2018-06-24T00:00:58.972Z,50.49
2018-06-24T00:03:27.150Z,50.51
2018-06-24T00:05:55.774Z,50.99
2018-06-24T00:08:23.881Z,50.64
2018-06-24T00:10:51.892Z,51.00
2018-06-24T00:13:19.920Z,51.17
2018-06-24T00:15:47.838Z,50.68
2018-06-24T00:18:15.849Z,51.03
2018-06-24T00:20:43.876Z,50.91
2018-06-24T00:23:12.083Z,50.77
2018-06-24T00:25:40.051Z,50.68
2018-06-24T00:28:07.932Z,51.01
2018-06-24T00:30:36.367Z,51.10
2018-06-24T00:33:04.279Z,51.24
2018-06-24T00:35:32.212Z,51.41
2018-06-24T00:38:00.113Z,51.77
2018-06-24T00:40:28.702Z,51.82
2018-06-24T00:42:56.623Z,51.97
2018-06-24T00:45:24.618Z,52.05
2018-06-24T00:47:52.543Z,52.12
2018-06-24T00:50:20.721Z,51.71
2018-06-24T00:52:48.801Z,51.43
2018-06-24T00:55:16.799Z,51.52
2018-06-24T00:57:44.817Z,52.25
2018-06-24T01:00:14.830Z,52.00
2018-06-24T01:02:42.890Z,51.79
2018-06-24T01:05:12.169Z,52.03
2018-06-24T01:07:40.557Z,52.40
2018-06-24T01:10:08.520Z,52.16
2018-06-24T01:12:36.500Z,52.19
2018-06-24T01:15:07.487Z,52.43
2018-06-24T01:17:35.483Z,52.80
2018-06-24T01:20:04.413Z,53.02
2018-06-24T01:22:32.380Z,52.71
2018-06-24T01:25:00.252Z,53.38
2018-06-24T01:27:28.256Z,53.16
2018-06-24T01:29:56.247Z,52.81
2018-06-24T01:32:24.695Z,53.05
2018-06-24T01:34:53.257Z,53.19
2018-06-24T01:37:21.212Z,53.34
2018-06-24T01:39:49.163Z,52.96
2018-06-24T01:42:17.123Z,53.37
2018-06-24T01:44:45.070Z,53.99
2018-06-24T01:47:12.975Z,54.74
2018-06-24T01:49:40.898Z,54.07
2018-06-24T01:52:08.997Z,54.38
2018-06-24T01:54:37.012Z,54.38
2018-06-24T01:57:05.096Z,54.88
2018-06-24T01:59:33.075Z,54.29
2018-06-24T02:02:01.066Z,54.83
2018-06-24T02:04:29.052Z,54.45
2018-06-24T02:06:56.970Z,54.58
2018-06-24T02:09:24.964Z,54.00
2018-06-24T02:11:52.977Z,54.24
2018-06-24T02:14:20.873Z,54.21
2018-06-24T02:16:48.818Z,54.91
2018-06-24T02:19:16.754Z,55.07
2018-06-24T02:21:44.776Z,55.26
2018-06-24T02:24:12.743Z,55.33
2018-06-24T02:26:41.115Z,56.33
2018-06-24T02:29:09.006Z,56.52
2018-06-24T02:31:37.043Z,55.53
2018-06-24T02:34:04.945Z,55.67
2018-06-24T02:36:33.890Z,55.62
2018-06-24T02:39:01.852Z,55.59
2018-06-24T02:41:29.972Z,55.49
2018-06-24T02:43:58.018Z,55.05
2018-06-24T02:46:25.915Z,55.86
2018-06-24T02:48:53.884Z,55.38
2018-06-24T02:51:21.813Z,54.55
2018-06-24T02:53:49.855Z,54.69
2018-06-24T02:56:17.824Z,54.82
2018-06-24T02:58:45.726Z,55.09
2018-06-24T03:01:13.675Z,55.24
2018-06-24T03:03:41.671Z,55.25
2018-06-24T03:06:09.605Z,55.31
2018-06-24T03:08:37.531Z,55.52
2018-06-24T03:11:05.500Z,54.79
2018-06-24T03:13:33.577Z,55.07
2018-06-24T03:16:01.480Z,54.80
2018-06-24T03:18:29.735Z,54.90
2018-06-24T03:20:57.687Z,54.93
2018-06-24T03:23:25.670Z,54.53
2018-06-24T03:25:54.589Z,56.36
2018-06-24T03:28:22.572Z,54.92
2018-06-24T03:30:50.548Z,54.56
2018-06-24T03:33:18.479Z,55.12
2018-06-24T03:35:46.583Z,54.84
2018-06-24T03:38:14.659Z,53.83
2018-06-24T03:40:42.636Z,54.62
2018-06-24T03:43:10.571Z,54.36
2018-06-24T03:45:38.526Z,54.38
2018-06-24T03:48:06.736Z,53.66
2018-06-24T03:50:34.829Z,53.45
2018-06-24T03:53:02.829Z,53.51
2018-06-24T03:55:30.822Z,52.36
2018-06-24T03:57:58.812Z,53.36
2018-06-24T04:00:26.827Z,52.99
2018-06-24T04:02:54.784Z,53.18
2018-06-24T04:05:22.700Z,52.52
2018-06-24T04:07:50.639Z,53.09
2018-06-24T04:10:18.684Z,52.71
2018-06-24T04:12:46.867Z,52.32
2018-06-24T04:15:14.824Z,52.15
2018-06-24T04:17:45.456Z,53.15
2018-06-24T04:20:13.471Z,53.50
2018-06-24T04:22:41.584Z,52.58
2018-06-24T04:25:10.101Z,51.61
2018-06-24T04:27:38.174Z,51.62
2018-06-24T04:30:07.181Z,51.35
2018-06-24T04:32:35.175Z,51.59
2018-06-24T04:35:03.245Z,51.95
2018-06-24T04:37:31.299Z,52.44
2018-06-24T04:39:59.385Z,50.86
2018-06-24T04:42:27.410Z,51.67
2018-06-24T04:44:55.361Z,51.06
2018-06-24T04:47:23.490Z,50.62
2018-06-24T04:49:51.404Z,50.70
2018-06-24T04:52:19.433Z,49.61
2018-06-24T04:54:47.417Z,49.80
2018-06-24T04:57:15.350Z,52.75
2018-06-24T04:59:44.283Z,55.37
2018-06-24T05:02:12.311Z,56.17
2018-06-24T05:04:40.294Z,55.39
2018-06-24T05:07:08.178Z,52.76
2018-06-24T05:09:36.100Z,55.20
2018-06-24T05:12:04.023Z,54.94
2018-06-24T05:14:31.993Z,55.31
2018-06-24T05:16:59.868Z,54.89
2018-06-24T05:19:27.971Z,55.86
2018-06-24T05:21:55.950Z,56.13
2018-06-24T05:24:24.328Z,56.56
2018-06-24T05:26:52.268Z,56.90
2018-06-24T05:29:20.241Z,56.98
2018-06-24T05:31:48.874Z,56.99
2018-06-24T05:34:16.877Z,56.46
2018-06-24T05:36:44.801Z,56.53
2018-06-24T05:39:13.575Z,54.95
2018-06-24T05:41:41.899Z,55.65
2018-06-24T05:44:10.297Z,54.30
2018-06-24T05:46:38.654Z,54.33
2018-06-24T05:49:06.702Z,54.40
2018-06-24T05:51:34.675Z,54.64
2018-06-24T05:54:02.595Z,53.85
2018-06-24T05:56:30.617Z,54.05
2018-06-24T05:58:58.585Z,54.53
2018-06-24T06:01:26.516Z,52.88
2018-06-24T06:03:55.057Z,52.56
2018-06-24T06:06:23.073Z,53.46
2018-06-24T06:08:52.411Z,52.26
2018-06-24T06:11:20.797Z,52.45
2018-06-24T06:13:48.783Z,51.16
2018-06-24T06:16:17.227Z,52.89
2018-06-24T06:18:46.827Z,53.50
2018-06-24T06:21:14.719Z,52.38
2018-06-24T06:23:42.760Z,51.21
2018-06-24T06:26:12.006Z,51.02
2018-06-24T06:28:40.008Z,50.82
2018-06-24T06:31:07.959Z,51.60
2018-06-24T06:33:36.076Z,50.19
2018-06-24T06:36:04.596Z,50.83
2018-06-24T06:38:32.649Z,51.00
2018-06-24T06:41:00.675Z,51.66
2018-06-24T06:43:28.896Z,50.07
2018-06-24T06:45:56.989Z,49.91
2018-06-24T06:48:25.020Z,50.39
2018-06-24T06:50:52.939Z,50.44
2018-06-24T06:53:21.065Z,51.07
2018-06-24T06:55:49.092Z,52.46
2018-06-24T06:58:18.001Z,51.39
2018-06-24T07:00:46.667Z,49.42
2018-06-24T07:03:14.874Z,48.50
2018-06-24T07:05:42.950Z,48.82
2018-06-24T07:08:11.477Z,49.06
2018-06-24T07:10:39.415Z,50.65
2018-06-24T07:13:07.454Z,49.87
2018-06-24T07:15:35.417Z,48.65
2018-06-24T07:18:03.988Z,50.68
2018-06-24T07:20:32.555Z,49.32
2018-06-24T07:23:00.675Z,47.60
2018-06-24T07:25:28.665Z,47.25
2018-06-24T07:27:57.795Z,47.03
2018-06-24T07:30:25.894Z,45.10
2018-06-24T07:32:53.906Z,45.08
2018-06-24T07:35:21.892Z,43.38
2018-06-24T07:37:49.853Z,43.36
2018-06-24T07:40:17.823Z,42.84
2018-06-24T07:42:46.393Z,40.92
2018-06-24T07:45:14.330Z,42.63
2018-06-24T07:47:42.439Z,39.20
2018-06-24T07:50:10.380Z,38.14
2018-06-24T07:52:38.408Z,37.91
2018-06-24T07:55:06.363Z,36.20
2018-06-24T07:57:34.419Z,38.86
2018-06-24T08:00:02.552Z,40.56
2018-06-24T08:02:30.506Z,36.23
2018-06-24T08:04:58.522Z,38.51
2018-06-24T08:07:26.454Z,36.60
2018-06-24T08:09:54.421Z,38.82
2018-06-24T08:12:22.373Z,38.06
2018-06-24T08:14:50.334Z,39.31
2018-06-24T08:17:18.689Z,36.88
2018-06-24T08:19:46.792Z,35.40
2018-06-24T08:22:15.934Z,38.42
2018-06-24T08:24:44.005Z,36.48
2018-06-24T08:27:12.750Z,36.26
2018-06-24T08:29:40.712Z,38.28
2018-06-24T08:32:08.736Z,39.69
2018-06-24T08:34:36.651Z,38.46
2018-06-24T08:37:06.803Z,37.81
2018-06-24T08:39:34.794Z,37.85
2018-06-24T08:42:02.794Z,38.72
2018-06-24T08:44:31.399Z,39.08
2018-06-24T08:46:59.790Z,39.12
2018-06-24T08:49:27.766Z,37.03
2018-06-24T08:51:55.698Z,35.90
2018-06-24T08:54:23.713Z,36.75
2018-06-24T08:56:51.872Z,37.80
2018-06-24T08:59:19.947Z,37.61
2018-06-24T09:01:48.358Z,37.80
2018-06-24T09:04:16.718Z,37.52
2018-06-24T09:06:44.821Z,40.86
2018-06-24T09:09:12.846Z,36.58
2018-06-24T09:11:40.925Z,35.36
2018-06-24T09:14:08.980Z,35.15
2018-06-24T09:16:37.051Z,35.62
2018-06-24T09:19:05.199Z,36.90
2018-06-24T09:21:33.201Z,36.60
2018-06-24T09:24:01.223Z,34.85
2018-06-24T09:26:29.282Z,33.84
2018-06-24T09:28:57.272Z,33.25
2018-06-24T09:31:25.531Z,34.84
2018-06-24T09:33:53.571Z,35.61
2018-06-24T09:36:21.607Z,33.12
2018-06-24T09:38:49.730Z,35.26
2018-06-24T09:41:17.839Z,35.85
2018-06-24T09:43:45.966Z,33.25
2018-06-24T09:46:14.173Z,34.60
2018-06-24T09:48:42.179Z,35.60
2018-06-24T09:51:10.150Z,34.71
2018-06-24T09:53:38.230Z,35.02
2018-06-24T09:56:06.273Z,36.38
2018-06-24T09:58:34.283Z,34.64
2018-06-24T10:01:02.288Z,35.93
2018-06-24T10:03:30.244Z,34.56
2018-06-24T10:05:58.247Z,35.16
2018-06-24T10:08:26.200Z,35.03
2018-06-24T10:10:54.188Z,37.22
2018-06-24T10:13:22.219Z,34.46
2018-06-24T10:15:50.166Z,31.81
2018-06-24T10:18:18.134Z,31.82
2018-06-24T10:20:46.120Z,33.10
2018-06-24T10:23:14.093Z,36.15
2018-06-24T10:25:42.054Z,34.85
2018-06-24T10:28:10.053Z,34.71
2018-06-24T10:30:37.991Z,32.21
2018-06-24T10:33:06.031Z,31.31
2018-06-24T10:35:34.014Z,31.78
2018-06-24T10:38:02.058Z,32.36
2018-06-24T10:40:30.743Z,32.99
2018-06-24T10:42:58.762Z,32.66
2018-06-24T10:45:27.012Z,32.46
2018-06-24T10:47:54.958Z,33.11
2018-06-24T10:50:22.883Z,34.00
2018-06-24T10:52:51.650Z,31.46
2018-06-24T10:55:20.604Z,35.33
2018-06-24T10:57:48.691Z,32.59
2018-06-24T11:00:16.660Z,34.35
2018-06-24T11:02:44.646Z,31.73
2018-06-24T11:05:12.672Z,30.32
2018-06-24T11:07:41.706Z,30.96
2018-06-24T11:10:09.753Z,32.76
2018-06-24T11:12:37.742Z,34.51
2018-06-24T11:15:05.744Z,32.49
2018-06-24T11:17:33.776Z,33.52
2018-06-24T11:20:02.013Z,33.47
2018-06-24T11:22:30.042Z,32.52
2018-06-24T11:24:58.004Z,34.05
2018-06-24T11:27:26.059Z,32.37
2018-06-24T11:29:54.178Z,32.40
2018-06-24T11:32:22.145Z,32.06
2018-06-24T11:34:50.233Z,32.31
2018-06-24T11:37:18.284Z,33.35
2018-06-24T11:39:46.306Z,31.55
2018-06-24T11:42:14.685Z,34.54
2018-06-24T11:44:42.638Z,34.66
2018-06-24T11:47:10.716Z,31.84
2018-06-24T11:49:38.646Z,31.68
2018-06-24T11:52:06.710Z,33.71
2018-06-24T11:54:34.711Z,32.53
2018-06-24T11:57:02.919Z,32.70
2018-06-24T11:59:30.960Z,35.03
2018-06-24T12:01:58.913Z,33.35
2018-06-24T12:04:27.057Z,32.86
2018-06-24T12:06:55.086Z,33.08
2018-06-24T12:09:23.070Z,32.62
2018-06-24T12:11:51.154Z,30.22
2018-06-24T12:14:19.159Z,31.84
2018-06-24T12:16:47.352Z,31.99
2018-06-24T12:19:15.445Z,33.14
2018-06-24T12:21:43.472Z,33.39
2018-06-24T12:24:11.583Z,34.04
2018-06-24T12:26:39.667Z,34.27
2018-06-24T12:29:07.612Z,35.05
2018-06-24T12:31:36.460Z,35.58
2018-06-24T12:34:04.668Z,34.71
2018-06-24T12:36:37.570Z,34.54
2018-06-24T12:39:11.821Z,35.37
2018-06-24T12:41:40.002Z,34.48
2018-06-24T12:44:08.660Z,34.89
2018-06-24T12:46:36.669Z,35.85
2018-06-24T12:49:05.537Z,34.43
2018-06-24T12:51:33.746Z,35.47
2018-06-24T12:54:01.836Z,35.92
2018-06-24T12:56:30.149Z,36.78
2018-06-24T12:58:58.215Z,36.61
2018-06-24T13:01:26.122Z,37.22
2018-06-24T13:03:54.827Z,36.02
2018-06-24T13:06:23.200Z,36.52
2018-06-24T13:08:51.378Z,36.31
2018-06-24T13:11:19.566Z,36.08
2018-06-24T13:13:47.813Z,36.28
2018-06-24T13:16:15.879Z,35.62
2018-06-24T13:18:44.111Z,36.25
2018-06-24T13:21:12.171Z,34.78
2018-06-24T13:23:40.311Z,32.75
2018-06-24T13:26:08.350Z,32.62
2018-06-24T13:28:36.711Z,34.73
2018-06-24T13:31:04.780Z,36.38
2018-06-24T13:33:32.782Z,36.39
2018-06-24T13:36:00.727Z,35.71
2018-06-24T13:38:28.798Z,35.51
2018-06-24T13:40:56.790Z,35.63
2018-06-24T13:43:24.821Z,36.35
2018-06-24T13:45:52.753Z,37.06
2018-06-24T13:48:20.728Z,37.50
2018-06-24T13:50:48.766Z,37.12
2018-06-24T13:53:16.627Z,37.80
2018-06-24T13:55:46.547Z,38.47
2018-06-24T13:58:14.640Z,37.55
2018-06-24T14:00:42.623Z,37.42
2018-06-24T14:03:10.598Z,36.59
2018-06-24T14:05:38.558Z,34.89
2018-06-24T14:08:06.655Z,34.12
2018-06-24T14:10:34.659Z,35.66
2018-06-24T14:13:02.872Z,37.55
2018-06-24T14:15:30.924Z,39.59
2018-06-24T14:17:58.834Z,40.80
2018-06-24T14:20:26.985Z,43.02
2018-06-24T14:22:54.927Z,43.66
2018-06-24T14:25:23.406Z,44.96
2018-06-24T14:27:51.495Z,44.49
2018-06-24T14:30:19.444Z,44.40
2018-06-24T14:32:47.555Z,43.79
2018-06-24T14:35:15.544Z,43.68
2018-06-24T14:37:43.828Z,44.69
2018-06-24T14:40:11.880Z,44.43
2018-06-24T14:42:39.955Z,44.73
2018-06-24T14:45:14.455Z,44.58
2018-06-24T14:47:42.470Z,44.62
2018-06-24T14:50:10.446Z,43.58
2018-06-24T14:52:38.510Z,43.55
2018-06-24T14:55:07.961Z,43.77
2018-06-24T14:57:35.959Z,43.29
2018-06-24T15:00:04.444Z,40.27
2018-06-24T15:02:34.665Z,40.24
2018-06-24T15:05:03.259Z,40.45
2018-06-24T15:07:31.238Z,41.31
2018-06-24T15:09:59.360Z,41.47
2018-06-24T15:12:27.342Z,41.99
2018-06-24T15:14:55.382Z,40.06
2018-06-24T15:17:23.414Z,41.06
2018-06-24T15:19:51.366Z,42.09
2018-06-24T15:22:19.431Z,43.32
2018-06-24T15:24:48.445Z,41.98
2018-06-24T15:27:16.369Z,39.48
2018-06-24T15:29:44.354Z,38.12
2018-06-24T15:32:12.315Z,37.04
2018-06-24T15:34:40.226Z,36.83
2018-06-24T15:37:08.216Z,37.42
2018-06-24T15:39:36.260Z,36.29
2018-06-24T15:42:04.341Z,38.58
2018-06-24T15:44:32.293Z,38.60
2018-06-24T15:47:00.234Z,39.08
2018-06-24T15:49:28.622Z,38.71
2018-06-24T15:51:56.642Z,37.09
2018-06-24T15:54:24.636Z,35.22
2018-06-24T15:56:52.626Z,36.34
2018-06-24T15:59:20.617Z,38.32
2018-06-24T16:01:48.597Z,39.07
2018-06-24T16:04:16.538Z,39.25
2018-06-24T16:06:44.498Z,38.10
2018-06-24T16:09:13.055Z,38.06
2018-06-24T16:11:42.060Z,37.97
2018-06-24T16:14:10.029Z,38.29
2018-06-24T16:16:39.780Z,39.62
2018-06-24T16:19:08.954Z,43.00
2018-06-24T16:21:37.004Z,44.27
2018-06-24T16:24:08.291Z,43.30
2018-06-24T16:26:36.561Z,43.44
2018-06-24T16:29:04.598Z,43.94
2018-06-24T16:31:32.602Z,44.31
2018-06-24T16:34:00.638Z,45.26
2018-06-24T16:36:29.287Z,45.62
2018-06-24T16:38:57.585Z,45.17
2018-06-24T16:41:25.635Z,46.31
2018-06-24T16:43:53.551Z,47.87
2018-06-24T16:46:21.488Z,48.40
2018-06-24T16:48:49.484Z,49.23
2018-06-24T16:51:17.514Z,49.75
2018-06-24T16:53:45.643Z,50.32
2018-06-24T16:56:13.635Z,50.28
2018-06-24T16:58:42.203Z,51.56
2018-06-24T17:01:10.311Z,50.97
2018-06-24T17:03:38.236Z,50.94
2018-06-24T17:06:06.204Z,51.31
2018-06-24T17:08:34.208Z,51.30
2018-06-24T17:11:02.144Z,51.33
2018-06-24T17:13:30.134Z,52.64
2018-06-24T17:15:58.288Z,53.25
2018-06-24T17:18:26.908Z,53.97
2018-06-24T17:20:54.905Z,55.30
2018-06-24T17:23:22.975Z,55.89
2018-06-24T17:25:51.012Z,57.59
2018-06-24T17:28:19.058Z,58.06
2018-06-24T17:30:47.130Z,59.79
2018-06-24T17:33:15.621Z,59.64
2018-06-24T17:35:43.730Z,59.45
2018-06-24T17:38:12.053Z,60.78
2018-06-24T17:40:40.081Z,61.56
2018-06-24T17:43:08.331Z,61.44
2018-06-24T17:45:39.967Z,61.21
2018-06-24T17:48:08.054Z,61.96
2018-06-24T17:50:36.315Z,62.28
2018-06-24T17:53:04.709Z,62.18
2018-06-24T17:55:32.709Z,63.09
2018-06-24T17:58:00.808Z,62.41
2018-06-24T18:00:28.806Z,62.56
2018-06-24T18:02:56.714Z,62.75
2018-06-24T18:05:24.701Z,62.51
2018-06-24T18:07:52.627Z,62.03
2018-06-24T18:10:20.672Z,62.47
2018-06-24T18:12:48.792Z,62.97
2018-06-24T18:15:17.006Z,62.64
2018-06-24T18:17:45.259Z,62.52
2018-06-24T18:20:13.302Z,63.02
2018-06-24T18:22:41.256Z,62.52
2018-06-24T18:25:09.505Z,62.70
2018-06-24T18:27:37.491Z,63.39
2018-06-24T18:30:06.117Z,63.04
2018-06-24T18:32:34.134Z,63.98
2018-06-24T18:35:02.168Z,63.71
2018-06-24T18:37:30.124Z,64.20
2018-06-24T18:39:58.088Z,64.37
2018-06-24T18:42:26.309Z,64.34
2018-06-24T18:44:54.321Z,64.36
2018-06-24T18:47:22.448Z,64.37
2018-06-24T18:49:51.344Z,63.88
2018-06-24T18:52:19.900Z,64.01
2018-06-24T18:54:47.862Z,64.98
2018-06-24T18:57:16.029Z,65.47
2018-06-24T18:59:44.060Z,65.70
2018-06-24T19:02:12.471Z,65.48
2018-06-24T19:04:40.525Z,66.16
2018-06-24T19:07:08.951Z,66.29
2018-06-24T19:09:37.200Z,67.37
2018-06-24T19:12:05.215Z,66.65
2018-06-24T19:14:33.168Z,66.60
2018-06-24T19:17:01.275Z,66.16
2018-06-24T19:19:29.352Z,66.50
2018-06-24T19:21:57.515Z,66.66
2018-06-24T19:24:25.638Z,66.58
2018-06-24T19:26:53.848Z,66.66
2018-06-24T19:29:21.924Z,65.52
2018-06-24T19:31:49.920Z,66.53
2018-06-24T19:34:18.011Z,66.15
2018-06-24T19:36:46.417Z,66.17
2018-06-24T19:39:14.506Z,65.81
2018-06-24T19:41:43.402Z,65.73
2018-06-24T19:44:11.465Z,66.25
2018-06-24T19:46:39.441Z,66.68
2018-06-24T19:49:07.424Z,67.16
2018-06-24T19:51:35.758Z,67.39
2018-06-24T19:54:03.752Z,67.78
2018-06-24T19:56:31.751Z,68.14
2018-06-24T19:58:59.789Z,69.04
2018-06-24T20:01:27.824Z,68.48
2018-06-24T20:03:55.822Z,68.89
2018-06-24T20:06:23.842Z,70.00
2018-06-24T20:08:51.893Z,70.08
2018-06-24T20:11:19.934Z,69.67
2018-06-24T20:13:47.953Z,70.64
2018-06-24T20:16:15.982Z,70.70
2018-06-24T20:18:44.059Z,71.69
2018-06-24T20:21:12.155Z,71.09
2018-06-24T20:23:40.653Z,72.30
2018-06-24T20:26:08.879Z,72.48
2018-06-24T20:28:37.010Z,72.74
2018-06-24T20:31:05.496Z,72.58
2018-06-24T20:33:33.546Z,72.69
2018-06-24T20:36:01.821Z,72.58
2018-06-24T20:38:29.968Z,72.86
2018-06-24T20:40:57.898Z,72.23
2018-06-24T20:43:25.959Z,72.00
2018-06-24T20:45:53.929Z,72.65
2018-06-24T20:48:22.074Z,72.59
2018-06-24T20:50:50.083Z,73.03
2018-06-24T20:53:18.856Z,72.54
2018-06-24T20:55:47.107Z,73.15
2018-06-24T20:58:15.618Z,73.52
2018-06-24T21:00:43.774Z,73.85
2018-06-24T21:03:11.804Z,74.11
2018-06-24T21:05:39.707Z,74.81
2018-06-24T21:08:07.800Z,75.18
2018-06-24T21:10:35.865Z,75.38
2018-06-24T21:13:03.838Z,76.68
2018-06-24T21:15:31.841Z,76.71
2018-06-24T21:17:59.779Z,77.08
2018-06-24T21:20:27.811Z,77.49
2018-06-24T21:22:55.762Z,77.70
2018-06-24T21:25:23.769Z,78.78
2018-06-24T21:27:51.818Z,78.90
2018-06-24T21:30:19.758Z,78.93
2018-06-24T21:32:47.731Z,78.98
2018-06-24T21:35:15.717Z,79.43
2018-06-24T21:37:43.658Z,80.58
2018-06-24T21:40:11.642Z,80.95
2018-06-24T21:42:40.104Z,81.56
2018-06-24T21:45:08.058Z,80.88
2018-06-24T21:47:35.996Z,80.83
2018-06-24T21:50:03.979Z,81.09
2018-06-24T21:52:31.935Z,81.02
2018-06-24T21:54:59.902Z,80.41
2018-06-24T21:57:27.845Z,81.42
2018-06-24T21:59:55.761Z,80.99
2018-06-24T22:02:23.725Z,81.21
2018-06-24T22:04:51.756Z,81.27
2018-06-24T22:07:20.065Z,81.50
2018-06-24T22:09:48.024Z,81.21
2018-06-24T22:12:16.065Z,81.76
2018-06-24T22:14:43.985Z,82.21
2018-06-24T22:17:11.967Z,81.58
2018-06-24T22:19:39.929Z,81.76
2018-06-24T22:22:07.889Z,81.99
2018-06-24T22:24:35.832Z,81.76
2018-06-24T22:27:03.880Z,82.30
2018-06-24T22:29:31.890Z,82.68
2018-06-24T22:31:59.935Z,83.31
2018-06-24T22:34:27.895Z,83.80
2018-06-24T22:36:55.852Z,83.34
2018-06-24T22:39:23.919Z,82.94
2018-06-24T22:41:51.858Z,83.45
2018-06-24T22:44:19.799Z,83.24
2018-06-24T22:46:47.862Z,83.62
2018-06-24T22:49:15.912Z,83.46
2018-06-24T22:51:43.960Z,82.11
2018-06-24T22:54:11.907Z,82.54
2018-06-24T22:56:39.984Z,82.33
2018-06-24T22:59:19.181Z,82.31
2018-06-24T23:01:47.179Z,82.36
2018-06-24T23:04:15.330Z,82.83
2018-06-24T23:06:43.287Z,82.60
2018-06-24T23:09:11.262Z,83.32
2018-06-24T23:11:39.201Z,82.94
2018-06-24T23:14:07.102Z,83.55
2018-06-24T23:16:35.546Z,83.45
2018-06-24T23:19:03.723Z,83.37
2018-06-24T23:21:31.678Z,83.02
2018-06-24T23:24:00.132Z,83.44
2018-06-24T23:26:28.126Z,82.94
2018-06-24T23:28:56.110Z,82.84
2018-06-24T23:31:23.974Z,82.76
2018-06-24T23:33:51.942Z,82.42
2018-06-24T23:36:19.989Z,82.71
2018-06-24T23:38:48.040Z,82.44
2018-06-24T23:41:15.954Z,82.84
2018-06-24T23:43:43.950Z,82.46
2018-06-24T23:46:11.859Z,81.81
2018-06-24T23:48:39.930Z,82.54
2018-06-24T23:51:07.888Z,82.58
2018-06-24T23:53:35.821Z,81.52
2018-06-24T23:56:03.844Z,81.14
2018-06-24T23:58:31.790Z,80.45
